sensor_id;sensor_type;location;lat;lon;timestamp;pressure;altitude;pressure_sealevel;temperature;humidity
67545;BME280;54380;47.770;11.150;2023-04-10T01:51:30;95383.66;;;2.90;58.12
67545;BME280;54380;47.770;11.150;2023-04-10T01:54:13;95390.66;;;2.82;58.56
67545;BME280;54380;47.770;11.150;2023-04-10T01:56:54;95385.44;;;2.82;59.15
67545;BME280;54380;47.770;11.150;2023-04-10T01:59:46;95389.66;;;2.83;59.29
67545;BME280;54380;47.770;11.150;2023-04-10T02:02:29;95391.31;;;2.91;59.27
67545;BME280;54380;47.770;11.150;2023-04-10T02:04:58;95390.50;;;2.91;59.31
67545;BME280;54380;47.770;11.150;2023-04-10T02:07:35;95392.72;;;2.94;58.97
67545;BME280;54380;47.770;11.150;2023-04-10T02:10:22;95386.50;;;2.95;58.92
67545;BME280;54380;47.770;11.150;2023-04-10T02:12:54;95385.72;;;2.94;57.96
67545;BME280;54380;47.770;11.150;2023-04-10T02:15:27;95385.69;;;2.88;58.52
67545;BME280;54380;47.770;11.150;2023-04-10T02:17:58;95396.28;;;2.86;59.10
67545;BME280;54380;47.770;11.150;2023-04-10T02:20:33;95396.69;;;2.90;58.43
67545;BME280;54380;47.770;11.150;2023-04-10T02:23:33;95398.94;;;2.93;58.21
67545;BME280;54380;47.770;11.150;2023-04-10T02:26:05;95389.72;;;2.90;58.79
67545;BME280;54380;47.770;11.150;2023-04-10T02:28:47;95391.88;;;2.86;58.92
67545;BME280;54380;47.770;11.150;2023-04-10T02:31:14;95387.47;;;2.87;58.24
67545;BME280;54380;47.770;11.150;2023-04-10T02:33:55;95385.84;;;2.86;58.44
67545;BME280;54380;47.770;11.150;2023-04-10T02:36:23;95374.00;;;2.83;58.28
67545;BME280;54380;47.770;11.150;2023-04-10T02:39:09;95382.38;;;2.79;58.68
67545;BME280;54380;47.770;11.150;2023-04-10T02:41:50;95383.56;;;2.76;59.20
67545;BME280;54380;47.770;11.150;2023-04-10T02:44:31;95388.78;;;2.76;59.32
67545;BME280;54380;47.770;11.150;2023-04-10T02:47:12;95388.59;;;2.78;58.80
67545;BME280;54380;47.770;11.150;2023-04-10T02:49:43;95380.59;;;2.79;58.19
67545;BME280;54380;47.770;11.150;2023-04-10T02:58:37;95392.81;;;2.51;56.53
67545;BME280;54380;47.770;11.150;2023-04-10T03:33:16;95395.22;;;2.31;58.87
67545;BME280;54380;47.770;11.150;2023-04-10T04:18:54;95396.47;;;1.47;58.71
67545;BME280;54380;47.770;11.150;2023-04-10T04:21:37;95400.59;;;1.42;59.77
67545;BME280;54380;47.770;11.150;2023-04-10T04:24:14;95401.44;;;1.42;60.00
67545;BME280;54380;47.770;11.150;2023-04-10T04:27:11;95405.28;;;1.46;60.28
67545;BME280;54380;47.770;11.150;2023-04-10T04:30:20;95403.75;;;1.52;60.06
67545;BME280;54380;47.770;11.150;2023-04-10T04:33:23;95402.56;;;1.54;60.17
67545;BME280;54380;47.770;11.150;2023-04-10T04:35:59;95410.66;;;1.60;60.16
67545;BME280;54380;47.770;11.150;2023-04-10T04:38:59;95402.69;;;1.61;59.75
67545;BME280;54380;47.770;11.150;2023-04-10T04:41:29;95409.47;;;1.62;59.59
67545;BME280;54380;47.770;11.150;2023-04-10T04:44:31;95413.25;;;1.60;59.44
67545;BME280;54380;47.770;11.150;2023-04-10T04:47:29;95410.66;;;1.60;59.58
67545;BME280;54380;47.770;11.150;2023-04-10T04:50:15;95412.63;;;1.58;59.38
67545;BME280;54380;47.770;11.150;2023-04-10T04:53:02;95411.19;;;1.55;59.41
67545;BME280;54380;47.770;11.150;2023-04-10T04:56:06;95413.19;;;1.53;59.59
67545;BME280;54380;47.770;11.150;2023-04-10T04:58:57;95416.22;;;1.57;58.92
67545;BME280;54380;47.770;11.150;2023-04-10T05:01:52;95410.38;;;1.54;59.15
67545;BME280;54380;47.770;11.150;2023-04-10T05:04:32;95413.97;;;1.53;58.92
67545;BME280;54380;47.770;11.150;2023-04-10T05:07:11;95411.56;;;1.52;58.45
67545;BME280;54380;47.770;11.150;2023-04-10T05:10:06;95411.13;;;1.48;58.70
67545;BME280;54380;47.770;11.150;2023-04-10T05:12:48;95416.47;;;1.47;58.90
67545;BME280;54380;47.770;11.150;2023-04-10T05:15:37;95417.28;;;1.47;59.38
67545;BME280;54380;47.770;11.150;2023-04-10T05:18:36;95417.28;;;1.47;59.63
67545;BME280;54380;47.770;11.150;2023-04-10T05:21:26;95424.91;;;1.49;59.72
67545;BME280;54380;47.770;11.150;2023-04-10T05:24:03;95426.00;;;1.54;59.32
67545;BME280;54380;47.770;11.150;2023-04-10T05:26:44;95419.63;;;1.57;59.15
67545;BME280;54380;47.770;11.150;2023-04-10T05:29:45;95415.06;;;1.59;58.85
67545;BME280;54380;47.770;11.150;2023-04-10T05:32:34;95408.41;;;1.57;58.56
67545;BME280;54380;47.770;11.150;2023-04-10T05:35:20;95414.63;;;1.56;58.89
67545;BME280;54380;47.770;11.150;2023-04-10T05:38:00;95415.22;;;1.58;59.29
67545;BME280;54380;47.770;11.150;2023-04-10T05:40:47;95417.28;;;1.62;59.40
67545;BME280;54380;47.770;11.150;2023-04-10T05:43:35;95422.38;;;1.70;59.42
67545;BME280;54380;47.770;11.150;2023-04-10T05:46:08;95420.84;;;1.76;59.36
67545;BME280;54380;47.770;11.150;2023-04-10T05:48:51;95422.38;;;1.85;59.34
67545;BME280;54380;47.770;11.150;2023-04-10T05:51:32;95430.72;;;1.95;59.70
67545;BME280;54380;47.770;11.150;2023-04-10T05:54:31;95435.81;;;2.04;59.52
67545;BME280;54380;47.770;11.150;2023-04-10T05:57:26;95432.84;;;2.07;59.44
67545;BME280;54380;47.770;11.150;2023-04-10T06:00:24;95437.94;;;2.15;59.73
67545;BME280;54380;47.770;11.150;2023-04-10T06:03:21;95447.94;;;2.33;59.78
67545;BME280;54380;47.770;11.150;2023-04-10T06:05:55;95439.72;;;2.51;59.55
67545;BME280;54380;47.770;11.150;2023-04-10T06:08:30;95443.06;;;2.66;59.41
67545;BME280;54380;47.770;11.150;2023-04-10T06:11:11;95441.53;;;2.78;59.04
67545;BME280;54380;47.770;11.150;2023-04-10T17:20:10;94879.69;;;16.16;32.87
67545;BME280;54380;47.770;11.150;2023-04-10T17:22:38;94879.25;;;16.09;32.77
67545;BME280;54380;47.770;11.150;2023-04-10T17:25:08;94877.50;;;15.99;33.18
67545;BME280;54380;47.770;11.150;2023-04-10T17:27:36;94873.09;;;15.90;33.28
67545;BME280;54380;47.770;11.150;2023-04-10T17:30:09;94870.25;;;15.81;33.63
67545;BME280;54380;47.770;11.150;2023-04-10T17:32:36;94876.19;;;15.73;34.10
67545;BME280;54380;47.770;11.150;2023-04-10T17:35:04;94869.31;;;15.67;34.30
67545;BME280;54380;47.770;11.150;2023-04-10T17:37:47;94876.06;;;15.59;35.21
67545;BME280;54380;47.770;11.150;2023-04-10T17:40:28;94876.38;;;15.52;35.31
67545;BME280;54380;47.770;11.150;2023-04-10T17:43:03;94873.53;;;15.44;35.65
67545;BME280;54380;47.770;11.150;2023-04-10T17:45:43;94869.63;;;15.36;35.61
67545;BME280;54380;47.770;11.150;2023-04-10T17:48:10;94875.25;;;15.29;36.24
67545;BME280;54380;47.770;11.150;2023-04-10T17:50:37;94866.53;;;15.24;35.90
67545;BME280;54380;47.770;11.150;2023-04-10T17:53:06;94865.00;;;15.18;36.15
67545;BME280;54380;47.770;11.150;2023-04-10T17:55:36;94867.16;;;15.10;36.43
67545;BME280;54380;47.770;11.150;2023-04-10T17:58:03;94869.41;;;14.98;36.65
67545;BME280;54380;47.770;11.150;2023-04-10T18:00:32;94863.94;;;14.79;37.18
67545;BME280;54380;47.770;11.150;2023-04-10T18:02:59;94869.41;;;14.59;37.64
67545;BME280;54380;47.770;11.150;2023-04-10T18:05:27;94859.13;;;14.37;37.83
67545;BME280;54380;47.770;11.150;2023-04-10T18:07:53;94859.75;;;14.18;38.15
67545;BME280;54380;47.770;11.150;2023-04-10T18:10:21;94867.28;;;14.06;38.51
67545;BME280;54380;47.770;11.150;2023-04-10T18:12:48;94875.53;;;13.94;38.54
67545;BME280;54380;47.770;11.150;2023-04-10T18:15:15;94869.72;;;13.87;39.01
67545;BME280;54380;47.770;11.150;2023-04-10T18:17:42;94869.72;;;13.77;39.02
67545;BME280;54380;47.770;11.150;2023-04-10T18:20:09;94871.91;;;13.65;39.52
67545;BME280;54380;47.770;11.150;2023-04-10T18:22:36;94867.97;;;13.52;40.00
67545;BME280;54380;47.770;11.150;2023-04-10T18:25:04;94868.22;;;13.40;40.39
67545;BME280;54380;47.770;11.150;2023-04-10T18:27:32;94860.31;;;13.30;40.44
67545;BME280;54380;47.770;11.150;2023-04-10T18:30:01;94868.75;;;13.22;40.65
67545;BME280;54380;47.770;11.150;2023-04-10T18:32:28;94852.34;;;13.14;40.52
67545;BME280;54380;47.770;11.150;2023-04-10T18:34:55;94864.28;;;13.12;40.90
67545;BME280;54380;47.770;11.150;2023-04-10T18:37:22;94856.56;;;13.10;40.93
67545;BME280;54380;47.770;11.150;2023-04-10T18:39:48;94859.22;;;13.10;40.92
67545;BME280;54380;47.770;11.150;2023-04-10T18:42:15;94861.09;;;13.15;41.31
67545;BME280;54380;47.770;11.150;2023-04-10T18:44:43;94861.34;;;13.18;41.30
67545;BME280;54380;47.770;11.150;2023-04-10T18:47:11;94861.88;;;13.21;42.26
67545;BME280;54380;47.770;11.150;2023-04-10T18:49:37;94864.78;;;13.19;42.77
67545;BME280;54380;47.770;11.150;2023-04-10T18:52:04;94870.34;;;13.23;43.08
67545;BME280;54380;47.770;11.150;2023-04-10T18:54:32;94865.59;;;13.25;43.37
67545;BME280;54380;47.770;11.150;2023-04-10T18:56:59;94860.81;;;13.27;42.55
67545;BME280;54380;47.770;11.150;2023-04-10T18:59:27;94865.63;;;13.30;42.40
67545;BME280;54380;47.770;11.150;2023-04-10T19:01:55;94856.84;;;13.29;42.28
67545;BME280;54380;47.770;11.150;2023-04-10T19:04:22;94861.88;;;13.26;41.91
67545;BME280;54380;47.770;11.150;2023-04-10T19:06:49;94856.56;;;13.21;42.12
67545;BME280;54380;47.770;11.150;2023-04-10T19:09:18;94856.03;;;13.08;42.09
67545;BME280;54380;47.770;11.150;2023-04-10T19:11:45;94857.41;;;12.90;42.03
67545;BME280;54380;47.770;11.150;2023-04-10T19:14:12;94857.38;;;12.70;41.89
67545;BME280;54380;47.770;11.150;2023-04-10T19:16:38;94848.63;;;12.49;42.41
67545;BME280;54380;47.770;11.150;2023-04-10T19:19:06;94851.22;;;12.28;42.68
67545;BME280;54380;47.770;11.150;2023-04-10T19:21:33;94840.84;;;12.06;42.93
67545;BME280;54380;47.770;11.150;2023-04-10T19:24:00;94839.69;;;11.87;43.23
67545;BME280;54380;47.770;11.150;2023-04-10T19:26:27;94829.31;;;11.70;43.90
67545;BME280;54380;47.770;11.150;2023-04-10T19:28:54;94830.56;;;11.57;44.27
67545;BME280;54380;47.770;11.150;2023-04-10T19:31:21;94821.25;;;11.50;44.75
67545;BME280;54380;47.770;11.150;2023-04-10T19:33:49;94821.00;;;11.46;45.01
67545;BME280;54380;47.770;11.150;2023-04-10T19:36:17;94820.19;;;11.40;45.18
67545;BME280;54380;47.770;11.150;2023-04-10T19:38:44;94807.44;;;11.27;45.25
67545;BME280;54380;47.770;11.150;2023-04-10T19:41:14;94817.41;;;11.20;44.82
67545;BME280;54380;47.770;11.150;2023-04-10T19:43:42;94815.00;;;11.18;44.82
67545;BME280;54380;47.770;11.150;2023-04-10T19:46:14;94814.78;;;11.20;45.28
67545;BME280;54380;47.770;11.150;2023-04-10T19:48:41;94814.50;;;11.16;45.31
67545;BME280;54380;47.770;11.150;2023-04-10T19:51:08;94820.78;;;11.10;45.48
67545;BME280;54380;47.770;11.150;2023-04-10T19:53:37;94816.28;;;11.11;45.61
67545;BME280;54380;47.770;11.150;2023-04-10T19:56:04;94818.88;;;11.06;45.47
67545;BME280;54380;47.770;11.150;2023-04-10T19:58:31;94816.44;;;10.94;46.30
67545;BME280;54380;47.770;11.150;2023-04-10T20:01:18;94807.06;;;10.76;46.14
67545;BME280;54380;47.770;11.150;2023-04-10T20:03:44;94811.47;;;10.65;46.92
67545;BME280;54380;47.770;11.150;2023-04-10T20:06:11;94808.75;;;10.55;47.68
67545;BME280;54380;47.770;11.150;2023-04-10T20:08:39;94804.44;;;10.44;47.48
67545;BME280;54380;47.770;11.150;2023-04-10T20:11:06;94811.53;;;10.38;47.77
67545;BME280;54380;47.770;11.150;2023-04-10T20:13:35;94813.81;;;10.29;47.89
67545;BME280;54380;47.770;11.150;2023-04-10T20:16:03;94813.97;;;10.23;48.23
67545;BME280;54380;47.770;11.150;2023-04-10T20:18:30;94816.34;;;10.19;48.55
67545;BME280;54380;47.770;11.150;2023-04-10T20:20:57;94816.13;;;10.26;48.76
67545;BME280;54380;47.770;11.150;2023-04-10T20:23:24;94820.22;;;10.39;49.05
67545;BME280;54380;47.770;11.150;2023-04-10T20:25:52;94825.88;;;10.52;48.96
67545;BME280;54380;47.770;11.150;2023-04-10T20:28:19;94823.09;;;10.64;48.90
67545;BME280;54380;47.770;11.150;2023-04-10T20:30:45;94815.25;;;10.74;48.99
67545;BME280;54380;47.770;11.150;2023-04-10T20:33:12;94816.13;;;10.85;48.63
67545;BME280;54380;47.770;11.150;2023-04-10T20:35:39;94817.50;;;10.93;48.20
67545;BME280;54380;47.770;11.150;2023-04-10T20:38:06;94819.38;;;10.97;48.72
67545;BME280;54380;47.770;11.150;2023-04-10T20:40:33;94824.97;;;11.01;48.17
67545;BME280;54380;47.770;11.150;2023-04-10T20:43:03;94825.72;;;10.96;47.93
67545;BME280;54380;47.770;11.150;2023-04-10T20:45:36;94828.19;;;10.76;47.74
67545;BME280;54380;47.770;11.150;2023-04-10T20:48:04;94822.53;;;10.62;48.17
67545;BME280;54380;47.770;11.150;2023-04-10T20:50:31;94828.19;;;10.44;48.35
67545;BME280;54380;47.770;11.150;2023-04-10T20:52:57;94827.03;;;10.35;48.30
67545;BME280;54380;47.770;11.150;2023-04-10T20:55:24;94830.69;;;10.28;48.95
67545;BME280;54380;47.770;11.150;2023-04-10T20:57:51;94827.47;;;10.26;48.90
67545;BME280;54380;47.770;11.150;2023-04-10T21:00:20;94847.06;;;10.30;49.33
67545;BME280;54380;47.770;11.150;2023-04-10T21:02:48;94850.78;;;10.35;50.07
67545;BME280;54380;47.770;11.150;2023-04-10T21:05:15;94839.25;;;10.41;50.05
67545;BME280;54380;47.770;11.150;2023-04-10T21:07:42;94848.25;;;10.45;50.46
67545;BME280;54380;47.770;11.150;2023-04-10T21:10:09;94848.84;;;10.52;49.90
67545;BME280;54380;47.770;11.150;2023-04-10T21:12:36;94857.31;;;10.54;49.44
67545;BME280;54380;47.770;11.150;2023-04-10T21:15:03;94850.34;;;10.43;49.16
67545;BME280;54380;47.770;11.150;2023-04-10T21:17:31;94844.09;;;10.27;49.99
67545;BME280;54380;47.770;11.150;2023-04-10T21:19:58;94852.88;;;10.10;50.08
67545;BME280;54380;47.770;11.150;2023-04-10T21:22:25;94841.19;;;10.01;49.86
67545;BME280;54380;47.770;11.150;2023-04-10T21:24:55;94840.06;;;9.97;50.01
67545;BME280;54380;47.770;11.150;2023-04-10T21:27:21;94840.84;;;9.93;49.72
67545;BME280;54380;47.770;11.150;2023-04-10T21:29:48;94828.13;;;9.89;51.05
67545;BME280;54380;47.770;11.150;2023-04-10T21:32:15;94830.53;;;9.91;50.61
67545;BME280;54380;47.770;11.150;2023-04-10T21:34:43;94832.06;;;9.87;50.97
67545;BME280;54380;47.770;11.150;2023-04-10T21:37:10;94830.19;;;9.82;50.79
67545;BME280;54380;47.770;11.150;2023-04-10T21:39:38;94835.44;;;9.82;50.47
67545;BME280;54380;47.770;11.150;2023-04-10T21:42:06;94840.72;;;9.82;50.70
67545;BME280;54380;47.770;11.150;2023-04-10T21:44:33;94844.66;;;9.80;50.26
67545;BME280;54380;47.770;11.150;2023-04-10T21:46:59;94841.19;;;9.79;50.42
67545;BME280;54380;47.770;11.150;2023-04-10T21:49:27;94841.50;;;9.83;50.57
67545;BME280;54380;47.770;11.150;2023-04-10T21:51:55;94847.81;;;9.82;50.23
67545;BME280;54380;47.770;11.150;2023-04-10T21:54:23;94849.91;;;9.80;50.74
67545;BME280;54380;47.770;11.150;2023-04-10T21:56:49;94847.75;;;9.77;50.36
67545;BME280;54380;47.770;11.150;2023-04-10T21:59:16;94850.66;;;9.75;50.42
67545;BME280;54380;47.770;11.150;2023-04-10T22:01:43;94848.81;;;9.76;50.72
67545;BME280;54380;47.770;11.150;2023-04-10T22:04:10;94851.19;;;9.77;50.88
67545;BME280;54380;47.770;11.150;2023-04-10T22:06:36;94841.69;;;9.76;50.77
67545;BME280;54380;47.770;11.150;2023-04-10T22:09:05;94840.03;;;9.70;51.15
67545;BME280;54380;47.770;11.150;2023-04-10T22:11:32;94832.78;;;9.60;50.95
67545;BME280;54380;47.770;11.150;2023-04-10T22:13:59;94828.75;;;9.53;50.47
67545;BME280;54380;47.770;11.150;2023-04-10T22:16:40;94829.00;;;9.51;51.69
67545;BME280;54380;47.770;11.150;2023-04-10T22:19:07;94825.81;;;9.49;51.98
67545;BME280;54380;47.770;11.150;2023-04-10T22:21:34;94810.72;;;9.44;51.33
67545;BME280;54380;47.770;11.150;2023-04-10T22:24:01;94811.28;;;9.47;51.04
67545;BME280;54380;47.770;11.150;2023-04-10T22:26:29;94804.97;;;9.48;51.75
67545;BME280;54380;47.770;11.150;2023-04-10T22:28:58;94809.78;;;9.51;50.66
67545;BME280;54380;47.770;11.150;2023-04-10T22:31:24;94801.59;;;9.52;50.96
67545;BME280;54380;47.770;11.150;2023-04-10T22:33:52;94798.66;;;9.49;51.04
67545;BME280;54380;47.770;11.150;2023-04-10T22:36:20;94798.66;;;9.49;50.71
67545;BME280;54380;47.770;11.150;2023-04-10T22:38:46;94806.03;;;9.47;51.71
67545;BME280;54380;47.770;11.150;2023-04-10T22:41:13;94799.91;;;9.41;51.34
67545;BME280;54380;47.770;11.150;2023-04-10T22:43:41;94800.63;;;9.36;51.28
67545;BME280;54380;47.770;11.150;2023-04-10T22:46:08;94784.25;;;9.34;51.75
67545;BME280;54380;47.770;11.150;2023-04-10T22:48:35;94794.78;;;9.34;51.80
67545;BME280;54380;47.770;11.150;2023-04-10T22:51:08;94794.84;;;9.39;51.58
67545;BME280;54380;47.770;11.150;2023-04-10T22:53:35;94783.88;;;9.48;52.02
67545;BME280;54380;47.770;11.150;2023-04-10T22:56:02;94792.97;;;9.57;51.56
67545;BME280;54380;47.770;11.150;2023-04-10T22:58:29;94800.94;;;9.62;51.31
67545;BME280;54380;47.770;11.150;2023-04-10T23:00:57;94794.13;;;9.66;51.31
67545;BME280;54380;47.770;11.150;2023-04-10T23:03:27;94787.31;;;9.70;50.92
67545;BME280;54380;47.770;11.150;2023-04-10T23:05:54;94789.47;;;9.73;50.95
67545;BME280;54380;47.770;11.150;2023-04-10T23:08:20;94794.25;;;9.76;51.54
67545;BME280;54380;47.770;11.150;2023-04-10T23:10:47;94785.03;;;9.79;51.38
67545;BME280;54380;47.770;11.150;2023-04-10T23:13:14;94776.94;;;9.85;50.99
67545;BME280;54380;47.770;11.150;2023-04-10T23:15:47;94767.75;;;9.88;51.03
67545;BME280;54380;47.770;11.150;2023-04-10T23:18:15;94773.53;;;9.85;51.35
67545;BME280;54380;47.770;11.150;2023-04-10T23:20:41;94765.84;;;9.83;51.20
67545;BME280;54380;47.770;11.150;2023-04-10T23:23:08;94762.72;;;9.86;51.07
67545;BME280;54380;47.770;11.150;2023-04-10T23:25:35;94761.44;;;9.89;51.42
67545;BME280;54380;47.770;11.150;2023-04-10T23:28:02;94759.09;;;9.93;51.09
67545;BME280;54380;47.770;11.150;2023-04-10T23:30:29;94757.31;;;9.98;51.66
67545;BME280;54380;47.770;11.150;2023-04-10T23:32:56;94756.53;;;10.03;51.47
67545;BME280;54380;47.770;11.150;2023-04-10T23:35:25;94756.59;;;10.08;51.23
67545;BME280;54380;47.770;11.150;2023-04-10T23:37:52;94747.66;;;10.09;50.89
67545;BME280;54380;47.770;11.150;2023-04-10T23:40:20;94747.38;;;10.10;50.74
67545;BME280;54380;47.770;11.150;2023-04-10T23:42:47;94753.44;;;10.06;51.09
67545;BME280;54380;47.770;11.150;2023-04-10T23:45:13;94747.78;;;9.97;50.59
67545;BME280;54380;47.770;11.150;2023-04-10T23:47:40;94738.75;;;9.88;50.87
67545;BME280;54380;47.770;11.150;2023-04-10T23:50:08;94745.56;;;9.84;50.95
67545;BME280;54380;47.770;11.150;2023-04-10T23:52:36;94740.78;;;9.81;51.10
67545;BME280;54380;47.770;11.150;2023-04-10T23:55:05;94739.44;;;9.78;50.76
67545;BME280;54380;47.770;11.150;2023-04-10T23:57:32;94740.72;;;9.76;51.16
67545;BME280;54380;47.770;11.150;2023-04-10T23:59:59;94729.63;;;9.74;50.94
